Terminal Aerodrome Forecast
Issued by NWS

Home | Current Version | Previous Version | Text Only | Print | Product List | Glossary On
Versions: 1 2 3 4 5 6 7 8 9 10 11 12 13
480
FTUS44 KBMX 291140
TAFTCL
TAF
KTCL 291140Z 2912/3012 16006KT 6SM BR BKN015
     FM291500 16018G27KT P6SM SCT040 SCT250
     FM300100 15009KT P6SM SCT060 SCT250
     FM300300 14014KT P6SM BKN050
     FM300600 14011KT P6SM OVC025=

USA.gov is the U.S. government's official web portal to all federal, state and local government web resources and services.